sensor_id;sensor_type;location;lat;lon;timestamp;P1;durP1;ratioP1;P2;durP2;ratioP2
31732;SDS011;18312;51.486;7.144;2024-03-08T00:02:17;1108.80;;;987.58;;
31732;SDS011;18312;51.486;7.144;2024-03-08T00:04:44;1105.15;;;984.92;;
31732;SDS011;18312;51.486;7.144;2024-03-08T00:07:12;1105.88;;;984.88;;
31732;SDS011;18312;51.486;7.144;2024-03-08T00:09:39;1105.60;;;984.55;;
31732;SDS011;18312;51.486;7.144;2024-03-08T00:12:06;1109.80;;;988.72;;
31732;SDS011;18312;51.486;7.144;2024-03-08T00:14:33;1104.70;;;984.13;;
31732;SDS011;18312;51.486;7.144;2024-03-08T00:17:02;1102.88;;;982.53;;
31732;SDS011;18312;51.486;7.144;2024-03-08T00:19:29;1099.53;;;978.95;;
31732;SDS011;18312;51.486;7.144;2024-03-08T00:21:56;1106.70;;;985.92;;
31732;SDS011;18312;51.486;7.144;2024-03-08T00:24:24;1104.72;;;983.70;;
31732;SDS011;18312;51.486;7.144;2024-03-08T00:26:50;1103.10;;;982.25;;
31732;SDS011;18312;51.486;7.144;2024-03-08T00:29:20;1101.45;;;981.03;;
31732;SDS011;18312;51.486;7.144;2024-03-08T00:31:47;1106.45;;;985.50;;
31732;SDS011;18312;51.486;7.144;2024-03-08T00:34:14;1095.90;;;975.30;;
31732;SDS011;18312;51.486;7.144;2024-03-08T00:36:41;1097.63;;;977.03;;
31732;SDS011;18312;51.486;7.144;2024-03-08T00:39:09;1097.43;;;977.43;;
31732;SDS011;18312;51.486;7.144;2024-03-08T00:41:38;1098.28;;;978.33;;
31732;SDS011;18312;51.486;7.144;2024-03-08T00:44:05;1096.40;;;975.90;;
31732;SDS011;18312;51.486;7.144;2024-03-08T00:46:32;1096.07;;;975.60;;
31732;SDS011;18312;51.486;7.144;2024-03-08T00:48:59;1094.47;;;974.43;;
31732;SDS011;18312;51.486;7.144;2024-03-08T00:51:26;1094.10;;;973.97;;
31732;SDS011;18312;51.486;7.144;2024-03-08T00:53:52;1094.68;;;974.33;;
31732;SDS011;18312;51.486;7.144;2024-03-08T00:56:19;1094.30;;;973.95;;
31732;SDS011;18312;51.486;7.144;2024-03-08T00:58:47;1097.50;;;976.85;;
31732;SDS011;18312;51.486;7.144;2024-03-08T01:01:14;1094.22;;;973.72;;
31732;SDS011;18312;51.486;7.144;2024-03-08T01:03:42;1089.43;;;969.70;;
31732;SDS011;18312;51.486;7.144;2024-03-08T01:06:09;1093.20;;;973.07;;
31732;SDS011;18312;51.486;7.144;2024-03-08T01:08:36;1094.28;;;973.95;;
31732;SDS011;18312;51.486;7.144;2024-03-08T01:11:07;1091.20;;;971.60;;
31732;SDS011;18312;51.486;7.144;2024-03-08T01:13:34;1100.45;;;972.50;;
31732;SDS011;18312;51.486;7.144;2024-03-08T01:16:05;1091.85;;;971.70;;
31732;SDS011;18312;51.486;7.144;2024-03-08T01:18:32;1094.82;;;974.22;;
31732;SDS011;18312;51.486;7.144;2024-03-08T01:20:59;1090.57;;;971.33;;
31732;SDS011;18312;51.486;7.144;2024-03-08T01:23:26;1090.72;;;970.72;;
31732;SDS011;18312;51.486;7.144;2024-03-08T01:25:54;1086.95;;;967.45;;
31732;SDS011;18312;51.486;7.144;2024-03-08T01:28:25;1090.97;;;970.95;;
31732;SDS011;18312;51.486;7.144;2024-03-08T01:30:52;1088.68;;;969.00;;
31732;SDS011;18312;51.486;7.144;2024-03-08T01:33:23;1088.68;;;968.97;;
31732;SDS011;18312;51.486;7.144;2024-03-08T01:35:50;1090.72;;;971.33;;
31732;SDS011;18312;51.486;7.144;2024-03-08T01:38:17;1093.05;;;973.20;;
31732;SDS011;18312;51.486;7.144;2024-03-08T01:40:46;1087.93;;;968.65;;
31732;SDS011;18312;51.486;7.144;2024-03-08T01:43:19;1088.30;;;968.67;;
31732;SDS011;18312;51.486;7.144;2024-03-08T01:45:46;1094.67;;;974.67;;
31732;SDS011;18312;51.486;7.144;2024-03-08T01:48:14;1086.13;;;966.25;;
31732;SDS011;18312;51.486;7.144;2024-03-08T01:50:43;1089.60;;;969.90;;
31732;SDS011;18312;51.486;7.144;2024-03-08T01:53:11;1090.07;;;970.33;;
31732;SDS011;18312;51.486;7.144;2024-03-08T01:55:40;1089.23;;;969.27;;
31732;SDS011;18312;51.486;7.144;2024-03-08T01:58:09;1091.60;;;971.25;;
31732;SDS011;18312;51.486;7.144;2024-03-08T02:00:36;1091.07;;;971.22;;
31732;SDS011;18312;51.486;7.144;2024-03-08T02:03:06;1086.37;;;966.70;;
31732;SDS011;18312;51.486;7.144;2024-03-08T02:05:33;1088.43;;;968.33;;
31732;SDS011;18312;51.486;7.144;2024-03-08T02:08:02;1088.50;;;968.33;;
31732;SDS011;18312;51.486;7.144;2024-03-08T02:10:31;1086.47;;;966.40;;
31732;SDS011;18312;51.486;7.144;2024-03-08T02:12:58;1089.78;;;969.50;;
31732;SDS011;18312;51.486;7.144;2024-03-08T02:15:25;1087.90;;;967.58;;
31732;SDS011;18312;51.486;7.144;2024-03-08T02:17:52;1085.00;;;965.35;;
31732;SDS011;18312;51.486;7.144;2024-03-08T02:20:19;1087.95;;;967.75;;
31732;SDS011;18312;51.486;7.144;2024-03-08T02:22:47;1090.03;;;969.78;;
31732;SDS011;18312;51.486;7.144;2024-03-08T02:25:16;1088.93;;;968.75;;
31732;SDS011;18312;51.486;7.144;2024-03-08T02:27:43;1090.30;;;970.17;;
31732;SDS011;18312;51.486;7.144;2024-03-08T02:30:10;1087.65;;;967.72;;
31732;SDS011;18312;51.486;7.144;2024-03-08T02:32:38;1088.25;;;968.65;;
31732;SDS011;18312;51.486;7.144;2024-03-08T02:35:05;1087.85;;;968.13;;
31732;SDS011;18312;51.486;7.144;2024-03-08T02:37:32;1089.05;;;969.10;;
31732;SDS011;18312;51.486;7.144;2024-03-08T02:40:00;1089.50;;;969.08;;
31732;SDS011;18312;51.486;7.144;2024-03-08T02:42:27;1088.65;;;968.20;;
31732;SDS011;18312;51.486;7.144;2024-03-08T02:44:54;1087.65;;;967.22;;
31732;SDS011;18312;51.486;7.144;2024-03-08T02:47:21;1089.70;;;969.33;;
31732;SDS011;18312;51.486;7.144;2024-03-08T02:49:47;1084.38;;;964.25;;
31732;SDS011;18312;51.486;7.144;2024-03-08T02:52:15;1087.80;;;967.17;;
31732;SDS011;18312;51.486;7.144;2024-03-08T02:54:42;1091.15;;;970.75;;
31732;SDS011;18312;51.486;7.144;2024-03-08T02:57:10;1087.47;;;967.17;;
31732;SDS011;18312;51.486;7.144;2024-03-08T02:59:37;1088.53;;;968.00;;
31732;SDS011;18312;51.486;7.144;2024-03-08T03:02:05;1083.95;;;964.10;;
31732;SDS011;18312;51.486;7.144;2024-03-08T03:04:32;1082.82;;;963.03;;
31732;SDS011;18312;51.486;7.144;2024-03-08T03:06:59;1084.07;;;964.35;;
31732;SDS011;18312;51.486;7.144;2024-03-08T03:09:26;1079.90;;;960.33;;
31732;SDS011;18312;51.486;7.144;2024-03-08T03:11:53;1083.38;;;963.42;;
31732;SDS011;18312;51.486;7.144;2024-03-08T03:14:22;1088.65;;;963.85;;
31732;SDS011;18312;51.486;7.144;2024-03-08T03:16:49;1078.53;;;958.10;;
31732;SDS011;18312;51.486;7.144;2024-03-08T03:19:15;1079.28;;;958.58;;
31732;SDS011;18312;51.486;7.144;2024-03-08T03:21:42;1084.25;;;960.38;;
31732;SDS011;18312;51.486;7.144;2024-03-08T03:24:09;1078.72;;;956.35;;
31732;SDS011;18312;51.486;7.144;2024-03-08T03:26:37;1080.28;;;958.53;;
31732;SDS011;18312;51.486;7.144;2024-03-08T03:29:05;1078.63;;;958.78;;
31732;SDS011;18312;51.486;7.144;2024-03-08T03:31:34;1082.13;;;958.15;;
31732;SDS011;18312;51.486;7.144;2024-03-08T03:34:02;1079.22;;;955.35;;
31732;SDS011;18312;51.486;7.144;2024-03-08T03:36:29;1079.25;;;956.95;;
31732;SDS011;18312;51.486;7.144;2024-03-08T03:38:56;1081.93;;;957.30;;
31732;SDS011;18312;51.486;7.144;2024-03-08T03:41:32;1077.28;;;957.65;;
31732;SDS011;18312;51.486;7.144;2024-03-08T03:43:59;1085.15;;;957.58;;
31732;SDS011;18312;51.486;7.144;2024-03-08T03:46:26;1081.43;;;956.08;;
31732;SDS011;18312;51.486;7.144;2024-03-08T03:48:54;1075.95;;;956.65;;
31732;SDS011;18312;51.486;7.144;2024-03-08T03:51:21;1077.85;;;952.95;;
31732;SDS011;18312;51.486;7.144;2024-03-08T03:53:49;1077.35;;;952.38;;
31732;SDS011;18312;51.486;7.144;2024-03-08T03:56:16;1077.88;;;955.63;;
31732;SDS011;18312;51.486;7.144;2024-03-08T03:58:42;1079.15;;;952.08;;
31732;SDS011;18312;51.486;7.144;2024-03-08T04:01:09;1076.13;;;950.90;;
31732;SDS011;18312;51.486;7.144;2024-03-08T04:03:36;1072.88;;;951.85;;
31732;SDS011;18312;51.486;7.144;2024-03-08T04:06:04;1077.22;;;953.45;;
31732;SDS011;18312;51.486;7.144;2024-03-08T04:08:31;1076.40;;;947.92;;
31732;SDS011;18312;51.486;7.144;2024-03-08T04:10:59;1070.20;;;947.53;;
31732;SDS011;18312;51.486;7.144;2024-03-08T04:13:26;1078.03;;;950.45;;
31732;SDS011;18312;51.486;7.144;2024-03-08T04:15:53;1076.63;;;956.92;;
31732;SDS011;18312;51.486;7.144;2024-03-08T04:18:20;1082.07;;;948.15;;
31732;SDS011;18312;51.486;7.144;2024-03-08T04:20:47;1072.45;;;946.63;;
31732;SDS011;18312;51.486;7.144;2024-03-08T04:23:15;1076.55;;;947.10;;
31732;SDS011;18312;51.486;7.144;2024-03-08T04:25:42;1078.00;;;944.60;;
31732;SDS011;18312;51.486;7.144;2024-03-08T04:28:09;1074.00;;;945.50;;
31732;SDS011;18312;51.486;7.144;2024-03-08T04:30:36;1072.55;;;943.05;;
31732;SDS011;18312;51.486;7.144;2024-03-08T04:33:04;1076.67;;;946.73;;
31732;SDS011;18312;51.486;7.144;2024-03-08T04:35:31;1075.32;;;942.53;;
31732;SDS011;18312;51.486;7.144;2024-03-08T04:37:58;1076.97;;;945.47;;
31732;SDS011;18312;51.486;7.144;2024-03-08T04:40:26;1083.80;;;954.97;;
31732;SDS011;18312;51.486;7.144;2024-03-08T04:42:53;1072.78;;;953.60;;
31732;SDS011;18312;51.486;7.144;2024-03-08T04:45:20;1081.38;;;951.30;;
31732;SDS011;18312;51.486;7.144;2024-03-08T04:47:47;1068.53;;;942.72;;
31732;SDS011;18312;51.486;7.144;2024-03-08T04:50:14;1066.38;;;942.20;;
31732;SDS011;18312;51.486;7.144;2024-03-08T04:52:41;1077.55;;;947.58;;
31732;SDS011;18312;51.486;7.144;2024-03-08T04:55:08;1075.25;;;949.53;;
31732;SDS011;18312;51.486;7.144;2024-03-08T04:57:37;1075.93;;;951.83;;
31732;SDS011;18312;51.486;7.144;2024-03-08T05:00:04;1072.82;;;949.15;;
31732;SDS011;18312;51.486;7.144;2024-03-08T05:02:36;1080.85;;;954.38;;
31732;SDS011;18312;51.486;7.144;2024-03-08T05:05:03;1076.30;;;949.92;;
31732;SDS011;18312;51.486;7.144;2024-03-08T05:07:32;1080.03;;;951.28;;
31732;SDS011;18312;51.486;7.144;2024-03-08T05:09:59;1070.57;;;946.20;;
31732;SDS011;18312;51.486;7.144;2024-03-08T05:12:27;1077.50;;;948.90;;
31732;SDS011;18312;51.486;7.144;2024-03-08T05:14:55;1075.32;;;948.03;;
31732;SDS011;18312;51.486;7.144;2024-03-08T05:17:22;1079.53;;;947.83;;
31732;SDS011;18312;51.486;7.144;2024-03-08T05:19:51;1069.60;;;946.85;;
31732;SDS011;18312;51.486;7.144;2024-03-08T05:22:18;1078.03;;;947.90;;
31732;SDS011;18312;51.486;7.144;2024-03-08T05:24:45;1080.38;;;950.53;;
31732;SDS011;18312;51.486;7.144;2024-03-08T05:27:12;1071.88;;;943.20;;
31732;SDS011;18312;51.486;7.144;2024-03-08T05:29:39;1076.68;;;946.25;;
31732;SDS011;18312;51.486;7.144;2024-03-08T05:32:07;1074.40;;;943.90;;
31732;SDS011;18312;51.486;7.144;2024-03-08T05:34:34;1080.68;;;940.15;;
31732;SDS011;18312;51.486;7.144;2024-03-08T05:37:01;1073.30;;;943.13;;
31732;SDS011;18312;51.486;7.144;2024-03-08T05:39:29;1075.13;;;943.70;;
31732;SDS011;18312;51.486;7.144;2024-03-08T05:41:58;1074.57;;;945.10;;
31732;SDS011;18312;51.486;7.144;2024-03-08T05:44:25;1077.60;;;946.65;;
31732;SDS011;18312;51.486;7.144;2024-03-08T05:46:53;1077.03;;;943.13;;
31732;SDS011;18312;51.486;7.144;2024-03-08T05:49:22;1069.72;;;941.20;;
31732;SDS011;18312;51.486;7.144;2024-03-08T05:51:50;1077.10;;;940.22;;
31732;SDS011;18312;51.486;7.144;2024-03-08T05:54:16;1072.22;;;940.40;;
31732;SDS011;18312;51.486;7.144;2024-03-08T05:56:43;1074.30;;;940.75;;
31732;SDS011;18312;51.486;7.144;2024-03-08T05:59:19;1072.50;;;942.72;;
31732;SDS011;18312;51.486;7.144;2024-03-08T06:01:48;1072.20;;;939.55;;
31732;SDS011;18312;51.486;7.144;2024-03-08T06:04:15;1069.78;;;938.20;;
31732;SDS011;18312;51.486;7.144;2024-03-08T06:06:44;1074.97;;;936.80;;
31732;SDS011;18312;51.486;7.144;2024-03-08T06:09:11;1067.55;;;939.65;;
31732;SDS011;18312;51.486;7.144;2024-03-08T06:11:47;1078.10;;;940.20;;
31732;SDS011;18312;51.486;7.144;2024-03-08T06:14:14;1075.28;;;939.95;;
31732;SDS011;18312;51.486;7.144;2024-03-08T06:16:43;1072.53;;;938.17;;
31732;SDS011;18312;51.486;7.144;2024-03-08T06:19:10;1071.65;;;941.67;;
31732;SDS011;18312;51.486;7.144;2024-03-08T06:21:37;1073.13;;;940.23;;
31732;SDS011;18312;51.486;7.144;2024-03-08T06:24:06;1073.20;;;942.50;;
31732;SDS011;18312;51.486;7.144;2024-03-08T06:26:33;1075.93;;;943.65;;
31732;SDS011;18312;51.486;7.144;2024-03-08T06:29:00;1072.72;;;938.67;;
31732;SDS011;18312;51.486;7.144;2024-03-08T06:31:26;1071.60;;;942.85;;
31732;SDS011;18312;51.486;7.144;2024-03-08T06:33:53;1068.73;;;939.07;;
31732;SDS011;18312;51.486;7.144;2024-03-08T06:36:20;1073.70;;;945.92;;
31732;SDS011;18312;51.486;7.144;2024-03-08T06:38:47;1076.80;;;944.10;;
31732;SDS011;18312;51.486;7.144;2024-03-08T06:41:15;1071.75;;;942.80;;
31732;SDS011;18312;51.486;7.144;2024-03-08T06:43:43;1080.78;;;945.92;;
31732;SDS011;18312;51.486;7.144;2024-03-08T06:46:10;1073.90;;;944.83;;
31732;SDS011;18312;51.486;7.144;2024-03-08T06:48:37;1070.93;;;935.53;;
31732;SDS011;18312;51.486;7.144;2024-03-08T06:51:04;1066.07;;;929.78;;
31732;SDS011;18312;51.486;7.144;2024-03-08T06:53:31;1071.78;;;933.03;;
31732;SDS011;18312;51.486;7.144;2024-03-08T06:56:00;1060.75;;;931.30;;
31732;SDS011;18312;51.486;7.144;2024-03-08T06:58:28;1066.13;;;939.63;;
31732;SDS011;18312;51.486;7.144;2024-03-08T07:00:55;1069.35;;;935.03;;
31732;SDS011;18312;51.486;7.144;2024-03-08T07:03:23;1072.03;;;947.65;;
31732;SDS011;18312;51.486;7.144;2024-03-08T07:05:51;1069.93;;;942.35;;
31732;SDS011;18312;51.486;7.144;2024-03-08T07:08:18;1070.80;;;944.07;;
31732;SDS011;18312;51.486;7.144;2024-03-08T07:10:47;1074.22;;;945.17;;
31732;SDS011;18312;51.486;7.144;2024-03-08T07:13:14;1069.20;;;947.70;;
31732;SDS011;18312;51.486;7.144;2024-03-08T07:15:43;1074.32;;;946.53;;
31732;SDS011;18312;51.486;7.144;2024-03-08T07:18:11;1072.72;;;945.47;;
31732;SDS011;18312;51.486;7.144;2024-03-08T07:20:40;1079.70;;;954.10;;
31732;SDS011;18312;51.486;7.144;2024-03-08T07:23:08;1089.50;;;969.08;;
31732;SDS011;18312;51.486;7.144;2024-03-08T07:25:35;1111.88;;;989.13;;
31732;SDS011;18312;51.486;7.144;2024-03-08T07:28:04;1127.67;;;999.90;;
31732;SDS011;18312;51.486;7.144;2024-03-08T07:30:32;1142.95;;;999.90;;
31732;SDS011;18312;51.486;7.144;2024-03-08T07:33:17;1156.93;;;999.90;;
31732;SDS011;18312;51.486;7.144;2024-03-08T07:35:44;1154.82;;;999.90;;
31732;SDS011;18312;51.486;7.144;2024-03-08T07:38:12;1152.30;;;999.90;;
31732;SDS011;18312;51.486;7.144;2024-03-08T07:40:40;1150.75;;;999.90;;
31732;SDS011;18312;51.486;7.144;2024-03-08T07:43:09;1144.30;;;999.90;;
31732;SDS011;18312;51.486;7.144;2024-03-08T07:45:36;1138.40;;;999.90;;
31732;SDS011;18312;51.486;7.144;2024-03-08T07:48:03;1144.97;;;999.90;;
31732;SDS011;18312;51.486;7.144;2024-03-08T07:50:36;1151.20;;;999.90;;
31732;SDS011;18312;51.486;7.144;2024-03-08T07:53:04;1176.95;;;999.90;;
31732;SDS011;18312;51.486;7.144;2024-03-08T07:55:37;1198.30;;;999.90;;
31732;SDS011;18312;51.486;7.144;2024-03-08T07:58:04;1215.20;;;999.90;;
31732;SDS011;18312;51.486;7.144;2024-03-08T08:00:31;1231.78;;;999.90;;
31732;SDS011;18312;51.486;7.144;2024-03-08T08:02:58;1248.50;;;999.90;;
31732;SDS011;18312;51.486;7.144;2024-03-08T08:05:26;1264.00;;;999.90;;
31732;SDS011;18312;51.486;7.144;2024-03-08T08:07:54;1280.47;;;999.90;;
31732;SDS011;18312;51.486;7.144;2024-03-08T08:10:21;1295.47;;;999.90;;
31732;SDS011;18312;51.486;7.144;2024-03-08T08:12:49;1310.45;;;999.90;;
31732;SDS011;18312;51.486;7.144;2024-03-08T08:15:17;1312.18;;;999.90;;
31732;SDS011;18312;51.486;7.144;2024-03-08T08:17:44;1311.03;;;999.90;;
31732;SDS011;18312;51.486;7.144;2024-03-08T08:20:11;1307.13;;;999.90;;
31732;SDS011;18312;51.486;7.144;2024-03-08T08:22:38;1304.75;;;999.90;;
31732;SDS011;18312;51.486;7.144;2024-03-08T08:25:07;1290.43;;;999.90;;
31732;SDS011;18312;51.486;7.144;2024-03-08T08:27:34;1284.40;;;999.90;;
31732;SDS011;18312;51.486;7.144;2024-03-08T08:30:03;1273.15;;;999.90;;
31732;SDS011;18312;51.486;7.144;2024-03-08T08:32:33;1259.35;;;999.90;;
31732;SDS011;18312;51.486;7.144;2024-03-08T08:35:00;1247.40;;;999.90;;
31732;SDS011;18312;51.486;7.144;2024-03-08T08:37:27;1242.30;;;999.90;;
31732;SDS011;18312;51.486;7.144;2024-03-08T08:39:54;1245.85;;;999.90;;
31732;SDS011;18312;51.486;7.144;2024-03-08T08:42:22;1241.22;;;999.90;;
31732;SDS011;18312;51.486;7.144;2024-03-08T08:44:49;1242.90;;;999.90;;
31732;SDS011;18312;51.486;7.144;2024-03-08T08:47:17;1246.72;;;999.90;;
31732;SDS011;18312;51.486;7.144;2024-03-08T08:49:44;1245.72;;;999.90;;
31732;SDS011;18312;51.486;7.144;2024-03-08T08:52:11;1243.17;;;999.90;;
31732;SDS011;18312;51.486;7.144;2024-03-08T08:54:38;1241.67;;;999.90;;
31732;SDS011;18312;51.486;7.144;2024-03-08T08:57:05;1242.13;;;999.90;;
31732;SDS011;18312;51.486;7.144;2024-03-08T08:59:34;1238.72;;;999.90;;
31732;SDS011;18312;51.486;7.144;2024-03-08T09:02:01;1232.78;;;999.90;;
31732;SDS011;18312;51.486;7.144;2024-03-08T09:04:29;1226.00;;;999.90;;
31732;SDS011;18312;51.486;7.144;2024-03-08T09:06:56;1222.50;;;999.90;;
31732;SDS011;18312;51.486;7.144;2024-03-08T09:09:23;1226.87;;;999.90;;
31732;SDS011;18312;51.486;7.144;2024-03-08T09:11:51;1227.47;;;999.90;;
31732;SDS011;18312;51.486;7.144;2024-03-08T09:14:17;1221.72;;;999.90;;
31732;SDS011;18312;51.486;7.144;2024-03-08T09:16:46;1217.20;;;999.90;;
31732;SDS011;18312;51.486;7.144;2024-03-08T09:19:13;1210.45;;;999.90;;
31732;SDS011;18312;51.486;7.144;2024-03-08T09:21:40;1209.05;;;999.90;;
31732;SDS011;18312;51.486;7.144;2024-03-08T09:24:07;1206.15;;;999.90;;
31732;SDS011;18312;51.486;7.144;2024-03-08T09:26:33;1215.18;;;999.90;;
31732;SDS011;18312;51.486;7.144;2024-03-08T09:29:00;1216.30;;;999.90;;
31732;SDS011;18312;51.486;7.144;2024-03-08T09:31:27;1224.13;;;999.90;;
31732;SDS011;18312;51.486;7.144;2024-03-08T09:33:55;1221.45;;;999.90;;
31732;SDS011;18312;51.486;7.144;2024-03-08T09:36:22;1218.80;;;999.90;;
31732;SDS011;18312;51.486;7.144;2024-03-08T09:38:50;1217.80;;;999.90;;
31732;SDS011;18312;51.486;7.144;2024-03-08T09:41:17;1211.18;;;999.90;;
31732;SDS011;18312;51.486;7.144;2024-03-08T09:43:45;1210.43;;;999.90;;
31732;SDS011;18312;51.486;7.144;2024-03-08T09:46:12;1208.75;;;999.90;;
31732;SDS011;18312;51.486;7.144;2024-03-08T09:48:40;1207.28;;;999.90;;
31732;SDS011;18312;51.486;7.144;2024-03-08T09:51:09;1202.75;;;999.90;;
31732;SDS011;18312;51.486;7.144;2024-03-08T09:53:40;1200.72;;;999.90;;
31732;SDS011;18312;51.486;7.144;2024-03-08T09:56:07;1198.90;;;999.90;;
31732;SDS011;18312;51.486;7.144;2024-03-08T09:58:34;1199.55;;;999.90;;
31732;SDS011;18312;51.486;7.144;2024-03-08T10:01:18;1197.83;;;999.90;;
31732;SDS011;18312;51.486;7.144;2024-03-08T10:03:47;1202.28;;;999.90;;
31732;SDS011;18312;51.486;7.144;2024-03-08T10:06:18;1200.07;;;999.90;;
31732;SDS011;18312;51.486;7.144;2024-03-08T10:08:49;1202.60;;;999.90;;
31732;SDS011;18312;51.486;7.144;2024-03-08T10:11:17;1203.90;;;999.90;;
31732;SDS011;18312;51.486;7.144;2024-03-08T10:13:44;1203.22;;;999.90;;
31732;SDS011;18312;51.486;7.144;2024-03-08T10:16:11;1205.55;;;999.90;;
31732;SDS011;18312;51.486;7.144;2024-03-08T10:18:38;1207.00;;;999.90;;
31732;SDS011;18312;51.486;7.144;2024-03-08T10:21:06;1205.18;;;999.90;;
31732;SDS011;18312;51.486;7.144;2024-03-08T10:23:35;1206.37;;;999.90;;
31732;SDS011;18312;51.486;7.144;2024-03-08T10:26:11;1207.35;;;999.90;;
31732;SDS011;18312;51.486;7.144;2024-03-08T10:28:40;1208.03;;;999.90;;
31732;SDS011;18312;51.486;7.144;2024-03-08T10:31:08;1203.95;;;999.90;;
31732;SDS011;18312;51.486;7.144;2024-03-08T10:33:35;1206.40;;;999.90;;
31732;SDS011;18312;51.486;7.144;2024-03-08T10:36:04;1203.68;;;999.90;;
31732;SDS011;18312;51.486;7.144;2024-03-08T10:38:35;1209.17;;;999.90;;
31732;SDS011;18312;51.486;7.144;2024-03-08T10:41:03;1208.97;;;999.90;;
31732;SDS011;18312;51.486;7.144;2024-03-08T10:43:31;1210.32;;;999.90;;
31732;SDS011;18312;51.486;7.144;2024-03-08T10:46:08;1212.50;;;999.90;;
31732;SDS011;18312;51.486;7.144;2024-03-08T10:48:47;1217.30;;;999.90;;
31732;SDS011;18312;51.486;7.144;2024-03-08T10:51:16;1220.47;;;999.90;;
31732;SDS011;18312;51.486;7.144;2024-03-08T10:53:52;1216.70;;;999.90;;
31732;SDS011;18312;51.486;7.144;2024-03-08T10:56:24;1222.47;;;999.90;;
31732;SDS011;18312;51.486;7.144;2024-03-08T10:58:52;1225.55;;;999.90;;
31732;SDS011;18312;51.486;7.144;2024-03-08T11:01:20;1224.27;;;999.90;;
31732;SDS011;18312;51.486;7.144;2024-03-08T11:03:47;1230.70;;;999.90;;
31732;SDS011;18312;51.486;7.144;2024-03-08T11:06:18;1226.80;;;999.90;;
31732;SDS011;18312;51.486;7.144;2024-03-08T11:08:50;1228.65;;;999.90;;
31732;SDS011;18312;51.486;7.144;2024-03-08T11:11:25;1233.07;;;999.90;;
31732;SDS011;18312;51.486;7.144;2024-03-08T11:13:55;1233.53;;;999.90;;
31732;SDS011;18312;51.486;7.144;2024-03-08T11:16:38;1229.32;;;999.90;;
31732;SDS011;18312;51.486;7.144;2024-03-08T11:19:23;1229.90;;;999.90;;
31732;SDS011;18312;51.486;7.144;2024-03-08T11:22:01;1231.97;;;999.90;;
31732;SDS011;18312;51.486;7.144;2024-03-08T11:24:37;1233.15;;;999.90;;
31732;SDS011;18312;51.486;7.144;2024-03-08T11:27:10;1236.78;;;999.90;;
31732;SDS011;18312;51.486;7.144;2024-03-08T11:29:37;1238.55;;;999.90;;
31732;SDS011;18312;51.486;7.144;2024-03-08T11:32:08;1239.35;;;999.90;;
31732;SDS011;18312;51.486;7.144;2024-03-08T11:34:36;1241.53;;;999.90;;
31732;SDS011;18312;51.486;7.144;2024-03-08T11:37:07;1245.18;;;999.90;;
31732;SDS011;18312;51.486;7.144;2024-03-08T11:39:39;1245.90;;;999.90;;
31732;SDS011;18312;51.486;7.144;2024-03-08T11:42:06;1248.32;;;999.90;;
31732;SDS011;18312;51.486;7.144;2024-03-08T11:44:35;1245.78;;;999.90;;
31732;SDS011;18312;51.486;7.144;2024-03-08T11:47:02;1249.80;;;999.90;;
31732;SDS011;18312;51.486;7.144;2024-03-08T11:49:34;1258.70;;;999.90;;
31732;SDS011;18312;51.486;7.144;2024-03-08T11:52:01;1258.07;;;999.90;;
31732;SDS011;18312;51.486;7.144;2024-03-08T11:54:28;1262.85;;;999.90;;
31732;SDS011;18312;51.486;7.144;2024-03-08T11:56:57;1274.28;;;999.90;;
31732;SDS011;18312;51.486;7.144;2024-03-08T11:59:26;1261.10;;;999.90;;
31732;SDS011;18312;51.486;7.144;2024-03-08T12:02:00;1263.57;;;999.90;;
31732;SDS011;18312;51.486;7.144;2024-03-08T12:04:28;1267.00;;;999.90;;
31732;SDS011;18312;51.486;7.144;2024-03-08T12:06:56;1263.40;;;999.90;;
31732;SDS011;18312;51.486;7.144;2024-03-08T12:09:25;1271.53;;;999.90;;
31732;SDS011;18312;51.486;7.144;2024-03-08T12:11:51;1276.80;;;999.90;;
31732;SDS011;18312;51.486;7.144;2024-03-08T12:14:19;1278.45;;;999.90;;
31732;SDS011;18312;51.486;7.144;2024-03-08T12:16:47;1274.15;;;999.90;;
31732;SDS011;18312;51.486;7.144;2024-03-08T12:19:16;1287.57;;;999.90;;
31732;SDS011;18312;51.486;7.144;2024-03-08T12:21:43;1280.10;;;999.90;;
31732;SDS011;18312;51.486;7.144;2024-03-08T12:24:14;1279.20;;;999.90;;
31732;SDS011;18312;51.486;7.144;2024-03-08T12:26:44;1281.90;;;999.90;;
31732;SDS011;18312;51.486;7.144;2024-03-08T12:29:17;1283.78;;;999.90;;
31732;SDS011;18312;51.486;7.144;2024-03-08T12:31:49;1286.38;;;999.90;;
31732;SDS011;18312;51.486;7.144;2024-03-08T12:34:17;1282.72;;;999.90;;
31732;SDS011;18312;51.486;7.144;2024-03-08T12:36:45;1282.10;;;999.90;;
31732;SDS011;18312;51.486;7.144;2024-03-08T12:39:16;1287.27;;;999.90;;
31732;SDS011;18312;51.486;7.144;2024-03-08T12:41:47;1291.78;;;999.90;;
31732;SDS011;18312;51.486;7.144;2024-03-08T12:44:16;1297.57;;;999.90;;
31732;SDS011;18312;51.486;7.144;2024-03-08T12:46:43;1296.80;;;999.90;;
31732;SDS011;18312;51.486;7.144;2024-03-08T12:49:12;1298.53;;;999.90;;
31732;SDS011;18312;51.486;7.144;2024-03-08T12:51:42;1301.57;;;999.90;;
31732;SDS011;18312;51.486;7.144;2024-03-08T12:54:10;1305.77;;;999.90;;
31732;SDS011;18312;51.486;7.144;2024-03-08T12:56:37;1306.43;;;999.90;;
31732;SDS011;18312;51.486;7.144;2024-03-08T12:59:05;1307.47;;;999.90;;
31732;SDS011;18312;51.486;7.144;2024-03-08T13:01:33;1313.78;;;999.90;;
31732;SDS011;18312;51.486;7.144;2024-03-08T13:04:02;1316.20;;;999.90;;
31732;SDS011;18312;51.486;7.144;2024-03-08T13:06:32;1311.72;;;999.90;;
31732;SDS011;18312;51.486;7.144;2024-03-08T13:08:59;1317.95;;;999.90;;
31732;SDS011;18312;51.486;7.144;2024-03-08T13:11:30;1321.63;;;999.90;;
31732;SDS011;18312;51.486;7.144;2024-03-08T13:14:01;1312.85;;;999.90;;
31732;SDS011;18312;51.486;7.144;2024-03-08T13:16:28;1314.07;;;999.90;;
31732;SDS011;18312;51.486;7.144;2024-03-08T13:18:55;1312.60;;;999.90;;
31732;SDS011;18312;51.486;7.144;2024-03-08T13:21:22;1314.25;;;999.90;;
31732;SDS011;18312;51.486;7.144;2024-03-08T13:23:51;1314.90;;;999.90;;
31732;SDS011;18312;51.486;7.144;2024-03-08T13:26:18;1313.63;;;999.90;;
31732;SDS011;18312;51.486;7.144;2024-03-08T13:28:45;1316.10;;;999.90;;
31732;SDS011;18312;51.486;7.144;2024-03-08T13:31:13;1321.32;;;999.90;;
31732;SDS011;18312;51.486;7.144;2024-03-08T13:33:41;1312.15;;;999.90;;
31732;SDS011;18312;51.486;7.144;2024-03-08T13:36:11;1314.38;;;999.90;;
31732;SDS011;18312;51.486;7.144;2024-03-08T13:38:41;1306.90;;;999.90;;
31732;SDS011;18312;51.486;7.144;2024-03-08T13:41:11;1312.32;;;999.90;;
31732;SDS011;18312;51.486;7.144;2024-03-08T13:43:40;1314.18;;;999.90;;
31732;SDS011;18312;51.486;7.144;2024-03-08T13:46:07;1318.10;;;999.90;;
31732;SDS011;18312;51.486;7.144;2024-03-08T13:48:35;1316.38;;;999.90;;
31732;SDS011;18312;51.486;7.144;2024-03-08T13:51:02;1317.72;;;999.90;;